createdAt,value
2022-09-23T00:01:39.161Z,6.60
2022-09-23T00:04:07.050Z,6.82
2022-09-23T00:06:33.547Z,6.88
2022-09-23T00:09:00.173Z,6.80
2022-09-23T00:11:28.079Z,7.15
2022-09-23T00:13:55.609Z,6.63
2022-09-23T00:16:23.604Z,6.70
2022-09-23T00:18:50.529Z,6.82
2022-09-23T00:21:19.158Z,7.15
2022-09-23T00:23:45.638Z,7.63
2022-09-23T00:26:13.201Z,7.07
2022-09-23T00:28:40.375Z,7.00
2022-09-23T00:31:08.686Z,7.35
2022-09-23T00:33:35.243Z,7.32
2022-09-23T00:36:02.788Z,7.63
2022-09-23T00:38:30.665Z,8.30
2022-09-23T00:40:58.383Z,7.38
2022-09-23T00:43:37.100Z,7.68
2022-09-23T00:46:03.798Z,8.05
2022-09-23T00:48:30.386Z,8.30
2022-09-23T00:50:56.863Z,7.32
2022-09-23T00:53:26.587Z,7.85
2022-09-23T00:55:55.998Z,7.95
2022-09-23T00:58:25.074Z,8.57
2022-09-23T01:00:51.712Z,8.15
2022-09-23T01:03:19.685Z,8.30
2022-09-23T01:05:46.471Z,9.25
2022-09-23T01:08:14.118Z,8.80
2022-09-23T01:10:43.092Z,9.18
2022-09-23T01:13:15.973Z,8.93
2022-09-23T01:15:47.112Z,9.25
2022-09-23T01:18:18.262Z,9.40
2022-09-23T01:20:59.253Z,9.50
2022-09-23T01:23:36.112Z,8.77
2022-09-23T01:26:10.536Z,9.10
2022-09-23T01:28:49.384Z,9.17
2022-09-23T01:31:21.121Z,9.07
2022-09-23T01:33:51.896Z,9.70
2022-09-23T01:36:21.757Z,9.13
2022-09-23T01:38:52.711Z,9.20
2022-09-23T01:41:28.751Z,8.75
2022-09-23T01:44:00.125Z,9.25
2022-09-23T01:46:31.558Z,9.02
2022-09-23T01:49:02.565Z,9.57
2022-09-23T01:51:31.005Z,9.75
2022-09-23T01:54:03.322Z,8.50
2022-09-23T01:56:31.189Z,9.40
2022-09-23T01:59:01.560Z,9.48
2022-09-23T02:01:30.709Z,9.82
2022-09-23T02:04:01.026Z,8.85
2022-09-23T02:06:29.423Z,10.05
2022-09-23T02:08:58.305Z,9.40
2022-09-23T02:11:24.951Z,9.50
2022-09-23T02:13:53.768Z,9.95
2022-09-23T02:16:24.831Z,10.50
2022-09-23T02:18:53.982Z,10.43
2022-09-23T02:21:21.902Z,10.45
2022-09-23T02:23:50.667Z,10.98
2022-09-23T02:26:19.739Z,10.70
2022-09-23T02:28:51.067Z,11.10
2022-09-23T02:31:21.643Z,10.65
2022-09-23T02:33:54.246Z,10.88
2022-09-23T02:36:26.131Z,10.80
2022-09-23T02:38:54.321Z,9.90
2022-09-23T02:41:26.555Z,10.93
2022-09-23T02:43:54.875Z,10.63
2022-09-23T02:46:21.748Z,10.73
2022-09-23T02:48:50.440Z,10.82
2022-09-23T02:51:17.029Z,10.00
2022-09-23T02:53:45.876Z,10.52
2022-09-23T02:56:14.937Z,10.25
2022-09-23T02:58:41.519Z,10.45
2022-09-23T03:01:11.574Z,9.82
2022-09-23T03:03:41.106Z,9.50
2022-09-23T03:06:10.049Z,9.63
2022-09-23T03:08:42.899Z,10.43
2022-09-23T03:11:11.689Z,9.77
2022-09-23T03:13:46.759Z,10.48
2022-09-23T03:16:18.479Z,9.45
2022-09-23T03:18:48.792Z,10.95
2022-09-23T03:21:18.057Z,9.57
2022-09-23T03:23:45.048Z,9.35
2022-09-23T03:26:14.760Z,9.40
2022-09-23T03:28:43.712Z,9.35
2022-09-23T03:31:10.875Z,9.02
2022-09-23T03:33:38.683Z,9.07
2022-09-23T03:36:26.207Z,9.05
2022-09-23T03:38:57.624Z,9.23
2022-09-23T03:41:28.940Z,9.18
2022-09-23T03:43:57.637Z,9.23
2022-09-23T03:46:25.101Z,9.70
2022-09-23T03:48:51.550Z,9.50
2022-09-23T03:51:20.765Z,9.88
2022-09-23T03:53:48.227Z,9.52
2022-09-23T03:56:14.787Z,9.60
2022-09-23T03:58:44.006Z,10.10
2022-09-23T04:01:10.552Z,9.50
2022-09-23T04:03:37.100Z,10.15
2022-09-23T04:06:03.683Z,9.57
2022-09-23T04:08:30.135Z,9.27
2022-09-23T04:10:59.306Z,9.10
2022-09-23T04:13:25.784Z,9.25
2022-09-23T04:15:53.628Z,9.07
2022-09-23T04:18:20.811Z,8.65
2022-09-23T04:20:47.272Z,9.82
2022-09-23T04:23:13.786Z,9.13
2022-09-23T04:25:44.157Z,9.38
2022-09-23T04:28:10.622Z,9.55
2022-09-23T04:30:38.674Z,9.35
2022-09-23T04:33:06.464Z,9.48
2022-09-23T04:35:36.644Z,9.10
2022-09-23T04:38:06.164Z,9.13
2022-09-23T04:40:33.032Z,9.93
2022-09-23T04:42:59.502Z,9.27
2022-09-23T04:45:26.332Z,9.07
2022-09-23T04:47:52.894Z,9.48
2022-09-23T04:50:21.112Z,8.77
2022-09-23T04:52:47.524Z,9.25
2022-09-23T04:55:13.993Z,8.80
2022-09-23T04:57:40.461Z,9.70
2022-09-23T05:00:07.639Z,8.68
2022-09-23T05:02:35.682Z,8.50
2022-09-23T05:05:02.212Z,8.70
2022-09-23T05:07:30.067Z,8.98
2022-09-23T05:09:56.534Z,8.13
2022-09-23T05:12:23.016Z,8.38
2022-09-23T05:14:49.492Z,9.13
2022-09-23T05:17:15.976Z,9.43
2022-09-23T05:19:42.546Z,8.48
2022-09-23T05:22:09.011Z,8.63
2022-09-23T05:24:36.874Z,9.05
2022-09-23T05:27:05.560Z,9.35
2022-09-23T05:29:32.177Z,9.65
2022-09-23T05:31:58.732Z,8.88
2022-09-23T05:34:25.462Z,9.13
2022-09-23T05:36:51.981Z,8.95
2022-09-23T05:39:18.462Z,9.20
2022-09-23T05:41:46.481Z,9.25
2022-09-23T05:44:13.030Z,10.02
2022-09-23T05:46:39.607Z,8.98
2022-09-23T05:49:06.458Z,8.57
2022-09-23T05:51:34.681Z,10.05
2022-09-23T05:54:04.038Z,10.80
2022-09-23T05:56:31.711Z,9.13
2022-09-23T05:59:00.437Z,9.90
2022-09-23T06:01:28.206Z,10.07
2022-09-23T06:03:55.407Z,15.20
2022-09-23T06:06:26.384Z,15.77
2022-09-23T06:08:52.886Z,15.98
2022-09-23T06:11:19.448Z,15.60
2022-09-23T06:13:45.936Z,15.25
2022-09-23T06:16:14.515Z,13.05
2022-09-23T06:18:41.504Z,13.32
2022-09-23T06:21:08.864Z,14.00
2022-09-23T06:23:38.513Z,13.25
2022-09-23T06:26:06.823Z,13.70
2022-09-23T06:28:34.192Z,12.52
2022-09-23T06:31:01.122Z,12.05
2022-09-23T06:33:35.785Z,11.07
2022-09-23T06:36:04.519Z,10.32
2022-09-23T06:38:32.076Z,10.63
2022-09-23T06:40:58.625Z,10.45
2022-09-23T06:43:25.974Z,10.43
2022-09-23T06:45:52.691Z,10.43
2022-09-23T06:48:19.217Z,9.98
2022-09-23T06:50:49.299Z,11.93
2022-09-23T06:53:15.910Z,11.63
2022-09-23T06:55:43.174Z,11.27
2022-09-23T06:58:09.759Z,11.32
2022-09-23T07:00:36.266Z,11.48
2022-09-23T07:03:06.414Z,10.10
2022-09-23T07:05:32.932Z,10.52
2022-09-23T07:08:01.068Z,9.15
2022-09-23T07:10:31.061Z,10.02
2022-09-23T07:13:01.216Z,10.32
2022-09-23T07:15:27.695Z,9.80
2022-09-23T07:17:54.193Z,8.90
2022-09-23T07:20:20.674Z,9.82
2022-09-23T07:22:49.048Z,9.18
2022-09-23T07:25:17.142Z,9.00
2022-09-23T07:27:43.636Z,9.00
2022-09-23T07:30:21.256Z,8.48
2022-09-23T07:32:50.762Z,8.65
2022-09-23T07:35:17.320Z,9.20
2022-09-23T07:37:43.826Z,8.23
2022-09-23T07:40:10.575Z,8.25
2022-09-23T07:42:40.881Z,8.32
2022-09-23T07:45:08.985Z,9.20
2022-09-23T07:47:35.526Z,8.70
2022-09-23T07:50:02.186Z,8.07
2022-09-23T07:52:28.630Z,8.57
2022-09-23T07:54:55.076Z,8.13
2022-09-23T07:57:21.552Z,7.10
2022-09-23T07:59:49.416Z,6.82
2022-09-23T08:02:16.435Z,7.60
2022-09-23T08:04:43.027Z,7.32
2022-09-23T08:07:12.119Z,6.80
2022-09-23T08:09:41.437Z,7.45
2022-09-23T08:12:11.598Z,6.82
2022-09-23T08:14:40.463Z,6.85
2022-09-23T08:17:08.474Z,6.90
2022-09-23T08:19:35.016Z,6.60
2022-09-23T08:22:01.507Z,6.68
2022-09-23T08:24:30.259Z,6.72
2022-09-23T08:26:57.176Z,6.75
2022-09-23T08:29:25.046Z,6.63
2022-09-23T08:31:51.902Z,7.20
2022-09-23T08:34:20.339Z,6.10
2022-09-23T08:36:47.077Z,6.25
2022-09-23T08:39:15.186Z,5.28
2022-09-23T08:41:45.861Z,5.90
2022-09-23T08:44:16.912Z,5.65
2022-09-23T08:46:46.502Z,5.65
2022-09-23T08:49:17.263Z,5.72
2022-09-23T08:51:46.402Z,6.38
2022-09-23T08:54:13.894Z,5.85
2022-09-23T08:56:43.570Z,5.90
2022-09-23T08:59:13.354Z,5.50
2022-09-23T09:01:42.722Z,5.63
2022-09-23T09:04:15.507Z,5.80
2022-09-23T09:06:52.879Z,5.88
2022-09-23T09:09:24.072Z,5.70
2022-09-23T09:11:52.684Z,5.60
2022-09-23T09:14:23.605Z,5.60
2022-09-23T09:17:00.033Z,5.28
2022-09-23T09:19:41.786Z,5.15
2022-09-23T09:22:12.277Z,4.85
2022-09-23T09:24:40.139Z,5.32
2022-09-23T09:27:10.469Z,5.07
2022-09-23T09:29:41.776Z,4.78
2022-09-23T09:32:14.009Z,4.75
2022-09-23T09:34:43.423Z,4.80
2022-09-23T09:37:14.778Z,4.30
2022-09-23T09:39:42.603Z,5.40
2022-09-23T09:42:13.739Z,4.47
2022-09-23T09:44:42.335Z,4.75
2022-09-23T09:47:19.953Z,4.43
2022-09-23T09:49:49.598Z,5.15
2022-09-23T09:52:21.308Z,4.82
2022-09-23T09:54:49.687Z,4.70
2022-09-23T09:57:18.565Z,4.25
2022-09-23T09:59:45.093Z,4.10
2022-09-23T10:02:23.175Z,4.50
2022-09-23T10:04:55.277Z,4.30
2022-09-23T10:07:24.484Z,3.80
2022-09-23T10:09:52.340Z,4.10
2022-09-23T10:12:19.985Z,4.15
2022-09-23T10:14:47.185Z,3.97
2022-09-23T10:17:15.902Z,3.92
2022-09-23T10:19:45.756Z,4.10
2022-09-23T10:22:16.683Z,3.85
2022-09-23T10:24:47.815Z,4.10
2022-09-23T10:27:16.981Z,3.35
2022-09-23T10:29:49.206Z,3.42
2022-09-23T10:32:20.591Z,3.70
2022-09-23T10:34:48.992Z,3.95
2022-09-23T10:37:17.473Z,3.63
2022-09-23T10:40:02.933Z,3.65
2022-09-23T10:42:57.001Z,3.67
2022-09-23T10:45:44.333Z,3.72
2022-09-23T10:48:15.654Z,3.80
2022-09-23T10:50:46.036Z,3.72
2022-09-23T10:53:15.332Z,4.38
2022-09-23T10:55:52.822Z,5.03
2022-09-23T10:58:47.736Z,4.90
2022-09-23T11:01:19.640Z,4.07
2022-09-23T11:04:04.722Z,4.82
2022-09-23T11:06:37.240Z,4.38
2022-09-23T11:09:23.705Z,4.93
2022-09-23T11:11:56.387Z,4.85
2022-09-23T11:14:34.097Z,4.75
2022-09-23T11:17:08.250Z,4.35
2022-09-23T11:19:45.409Z,5.60
2022-09-23T11:22:20.163Z,5.70
2022-09-23T11:25:16.864Z,4.82
2022-09-23T11:27:59.356Z,4.43
2022-09-23T11:30:30.909Z,4.50
2022-09-23T11:33:04.480Z,5.05
2022-09-23T11:35:34.125Z,5.05
2022-09-23T11:38:05.163Z,5.63
2022-09-23T11:40:34.017Z,5.50
2022-09-23T11:43:04.162Z,5.60
2022-09-23T11:45:33.666Z,5.57
2022-09-23T11:48:02.398Z,5.50
2022-09-23T11:50:31.978Z,5.63
2022-09-23T11:53:02.235Z,5.72
2022-09-23T11:55:32.314Z,6.28
2022-09-23T11:58:01.851Z,5.82
2022-09-23T12:00:34.213Z,5.70
2022-09-23T12:03:06.733Z,5.80
2022-09-23T12:05:35.481Z,5.72
2022-09-23T12:08:05.133Z,6.60
2022-09-23T12:10:37.522Z,6.47
2022-09-23T12:13:07.269Z,6.30
2022-09-23T12:15:41.747Z,6.72
2022-09-23T12:18:22.357Z,6.97
2022-09-23T12:20:56.629Z,6.15
2022-09-23T12:23:32.332Z,6.28
2022-09-23T12:26:01.905Z,6.35
2022-09-23T12:28:29.620Z,6.32
2022-09-23T12:30:58.414Z,6.35
2022-09-23T12:33:27.684Z,6.20
2022-09-23T12:35:55.019Z,6.30
2022-09-23T12:38:25.142Z,6.18
2022-09-23T12:40:53.178Z,6.28
2022-09-23T12:43:29.749Z,6.78
2022-09-23T12:46:19.568Z,6.55
2022-09-23T12:48:57.927Z,5.63
2022-09-23T12:51:24.810Z,5.47
2022-09-23T12:53:56.312Z,6.00
2022-09-23T12:56:24.691Z,5.53
2022-09-23T12:59:02.383Z,5.85
2022-09-23T13:01:35.238Z,5.22
2022-09-23T13:04:21.427Z,5.78
2022-09-23T13:06:53.188Z,5.30
2022-09-23T13:09:21.984Z,5.38
2022-09-23T13:11:48.764Z,5.03
2022-09-23T13:14:17.739Z,5.50
2022-09-23T13:16:45.861Z,5.65
2022-09-23T13:19:27.590Z,5.30
2022-09-23T13:22:09.261Z,5.50
2022-09-23T13:24:43.541Z,5.35
2022-09-23T13:27:15.458Z,5.60
2022-09-23T13:29:43.570Z,4.63
2022-09-23T13:32:11.704Z,5.60
2022-09-23T13:34:39.929Z,4.78
2022-09-23T13:37:21.486Z,5.30
2022-09-23T13:39:48.968Z,4.93
2022-09-23T13:42:20.090Z,5.40
2022-09-23T13:44:46.792Z,6.22
2022-09-23T13:47:13.672Z,5.18
2022-09-23T13:49:41.082Z,6.05
2022-09-23T13:52:23.259Z,5.55
2022-09-23T13:54:51.219Z,5.82
2022-09-23T13:57:27.844Z,5.88
2022-09-23T13:59:54.327Z,5.40
2022-09-23T14:02:20.943Z,5.78
2022-09-23T14:04:47.442Z,5.93
2022-09-23T14:07:15.196Z,5.97
2022-09-23T14:09:42.902Z,6.05
2022-09-23T14:12:11.064Z,6.13
2022-09-23T14:14:38.482Z,6.03
2022-09-23T14:17:05.806Z,6.75
2022-09-23T14:19:32.750Z,6.07
2022-09-23T14:22:00.171Z,6.70
2022-09-23T14:24:31.760Z,6.25
2022-09-23T14:26:59.683Z,6.60
2022-09-23T14:29:29.255Z,6.43
2022-09-23T14:31:57.166Z,5.63
2022-09-23T14:34:44.060Z,5.30
2022-09-23T14:37:43.984Z,6.05
2022-09-23T14:40:12.928Z,6.13
2022-09-23T14:42:41.219Z,5.90
2022-09-23T14:45:13.559Z,5.90
2022-09-23T14:47:42.649Z,6.68
2022-09-23T14:50:33.147Z,6.30
2022-09-23T14:52:59.632Z,6.50
2022-09-23T14:55:28.134Z,6.55
2022-09-23T14:58:01.378Z,7.05
2022-09-23T15:00:29.337Z,6.10
2022-09-23T15:03:00.161Z,6.78
2022-09-23T15:05:31.841Z,6.80
2022-09-23T15:08:01.108Z,6.90
2022-09-23T15:10:28.777Z,7.03
2022-09-23T15:13:01.418Z,7.90
2022-09-23T15:15:29.365Z,7.65
2022-09-23T15:17:56.040Z,7.80
2022-09-23T15:20:23.535Z,7.63
2022-09-23T15:22:50.939Z,7.35
2022-09-23T15:25:18.637Z,8.20
2022-09-23T15:27:55.587Z,6.63
2022-09-23T15:30:22.359Z,7.45
2022-09-23T15:32:50.407Z,7.00
2022-09-23T15:35:18.806Z,7.47
2022-09-23T15:37:46.953Z,6.68
2022-09-23T15:40:19.328Z,8.45
2022-09-23T15:42:51.210Z,7.80
2022-09-23T15:45:19.902Z,8.68
2022-09-23T15:47:47.095Z,7.90
2022-09-23T15:50:15.140Z,8.50
2022-09-23T15:52:44.999Z,9.65
2022-09-23T15:55:15.329Z,9.02
2022-09-23T15:57:41.777Z,8.80
2022-09-23T16:00:11.424Z,8.85
2022-09-23T16:02:39.404Z,8.85
2022-09-23T16:05:07.700Z,9.23
2022-09-23T16:07:36.326Z,9.60
2022-09-23T16:10:03.023Z,9.68
2022-09-23T16:12:30.075Z,9.50
2022-09-23T16:14:56.631Z,9.70
2022-09-23T16:17:23.204Z,10.07
2022-09-23T16:19:49.663Z,9.75
2022-09-23T16:22:16.656Z,10.45
2022-09-23T16:24:44.466Z,10.93
2022-09-23T16:27:12.557Z,11.35
2022-09-23T16:29:39.042Z,10.48
2022-09-23T16:32:05.564Z,10.60
2022-09-23T16:34:34.724Z,11.05
2022-09-23T16:37:01.232Z,11.80
2022-09-23T16:39:27.685Z,13.13
2022-09-23T16:41:55.907Z,12.30
2022-09-23T16:44:22.450Z,12.10
2022-09-23T16:46:49.143Z,11.50
2022-09-23T16:49:15.642Z,14.15
2022-09-23T16:51:42.192Z,11.18
2022-09-23T16:54:10.296Z,11.60
2022-09-23T16:56:37.491Z,11.55
2022-09-23T16:59:05.364Z,11.85
2022-09-23T17:01:50.368Z,13.68
2022-09-23T17:04:18.286Z,13.52
2022-09-23T17:06:46.369Z,13.80
2022-09-23T17:09:12.893Z,13.63
2022-09-23T17:11:39.445Z,12.88
2022-09-23T17:14:07.260Z,13.38
2022-09-23T17:16:34.610Z,12.63
2022-09-23T17:19:06.299Z,13.30
2022-09-23T17:21:32.868Z,13.10
2022-09-23T17:23:59.335Z,14.02
2022-09-23T17:26:26.504Z,14.43
2022-09-23T17:28:56.666Z,14.10
2022-09-23T17:31:25.056Z,14.50
2022-09-23T17:33:51.691Z,14.35
2022-09-23T17:36:18.357Z,13.93
2022-09-23T17:38:45.461Z,14.48
2022-09-23T17:41:12.747Z,14.48
2022-09-23T17:43:39.331Z,13.82
2022-09-23T17:46:06.777Z,14.65
2022-09-23T17:48:35.648Z,14.95
2022-09-23T17:51:04.069Z,15.13
2022-09-23T17:53:31.381Z,14.40
2022-09-23T17:55:59.034Z,15.20
2022-09-23T17:58:26.291Z,14.07
2022-09-23T18:00:52.863Z,18.15
2022-09-23T18:03:19.459Z,14.55
2022-09-23T18:05:47.329Z,15.07
2022-09-23T18:08:13.874Z,13.98
2022-09-23T18:10:40.378Z,14.93
2022-09-23T18:13:07.044Z,14.82
2022-09-23T18:15:35.129Z,15.02
2022-09-23T18:18:01.644Z,13.95
2022-09-23T18:20:28.120Z,14.20
2022-09-23T18:22:56.039Z,13.32
2022-09-23T18:25:38.801Z,13.30
2022-09-23T18:28:06.312Z,14.85
2022-09-23T18:30:33.603Z,13.27
2022-09-23T18:33:00.165Z,13.48
2022-09-23T18:35:26.835Z,13.43
2022-09-23T18:37:53.605Z,15.50
2022-09-23T18:40:21.555Z,14.48
2022-09-23T18:42:48.434Z,15.48
2022-09-23T18:45:14.959Z,15.63
2022-09-23T18:48:00.055Z,14.48
2022-09-23T18:50:43.203Z,15.63
2022-09-23T18:53:10.337Z,14.60
2022-09-23T18:55:38.250Z,15.38
2022-09-23T18:58:07.423Z,15.98
2022-09-23T19:00:34.722Z,18.10
2022-09-23T19:03:01.393Z,20.40
2022-09-23T19:05:28.424Z,20.23
2022-09-23T19:07:55.421Z,18.33
2022-09-23T19:10:22.214Z,18.73
2022-09-23T19:12:50.153Z,18.13
2022-09-23T19:15:16.888Z,18.95
2022-09-23T19:17:43.884Z,18.00
2022-09-23T19:20:10.428Z,17.85
2022-09-23T19:22:36.958Z,15.95
2022-09-23T19:25:04.305Z,15.02
2022-09-23T19:27:30.746Z,15.20
2022-09-23T19:29:58.626Z,14.82
2022-09-23T19:32:26.748Z,14.70
2022-09-23T19:34:53.705Z,14.88
2022-09-23T19:37:20.271Z,15.23
2022-09-23T19:39:47.662Z,14.55
2022-09-23T19:42:14.205Z,15.20
2022-09-23T19:44:40.990Z,15.57
2022-09-23T19:47:15.394Z,15.80
2022-09-23T19:49:42.117Z,16.13
2022-09-23T19:52:08.628Z,16.25
2022-09-23T19:54:35.114Z,16.25
2022-09-23T19:57:01.716Z,17.60
2022-09-23T19:59:28.149Z,16.35
2022-09-23T20:01:54.660Z,16.77
2022-09-23T20:04:22.767Z,15.10
2022-09-23T20:06:49.608Z,15.35
2022-09-23T20:09:16.175Z,15.98
2022-09-23T20:11:43.017Z,17.15
2022-09-23T20:14:10.097Z,17.20
2022-09-23T20:16:37.203Z,17.25
2022-09-23T20:19:05.620Z,16.77
2022-09-23T20:21:34.222Z,17.30
2022-09-23T20:24:01.991Z,18.17
2022-09-23T20:26:46.919Z,17.33
2022-09-23T20:29:13.499Z,17.73
2022-09-23T20:31:42.998Z,18.52
2022-09-23T20:34:10.823Z,18.95
2022-09-23T20:36:40.975Z,18.38
2022-09-23T20:39:07.677Z,17.98
2022-09-23T20:41:37.297Z,17.25
2022-09-23T20:44:05.823Z,17.52
2022-09-23T20:46:32.474Z,16.65
2022-09-23T20:48:59.001Z,16.55
2022-09-23T20:51:26.283Z,16.10
2022-09-23T20:53:54.128Z,16.13
2022-09-23T20:56:21.386Z,17.55
2022-09-23T20:58:48.712Z,15.90
2022-09-23T21:01:15.794Z,15.35
2022-09-23T21:03:43.760Z,14.82
2022-09-23T21:06:11.544Z,14.75
2022-09-23T21:08:38.061Z,14.70
2022-09-23T21:11:07.917Z,14.85
2022-09-23T21:13:34.746Z,14.38
2022-09-23T21:16:02.279Z,14.10
2022-09-23T21:18:28.792Z,14.70
2022-09-23T21:20:55.913Z,15.10
2022-09-23T21:23:23.985Z,14.77
2022-09-23T21:25:50.849Z,14.82
2022-09-23T21:28:18.915Z,14.82
2022-09-23T21:30:48.583Z,17.65
2022-09-23T21:33:18.278Z,15.27
2022-09-23T21:35:44.752Z,16.50
2022-09-23T21:38:11.222Z,15.50
2022-09-23T21:40:56.033Z,18.90
2022-09-23T21:43:24.020Z,15.03
2022-09-23T21:45:58.139Z,16.00
2022-09-23T21:48:24.657Z,16.70
2022-09-23T21:50:54.047Z,16.02
2022-09-23T21:53:20.645Z,13.88
2022-09-23T21:55:48.774Z,15.02
2022-09-23T21:58:15.287Z,13.45
2022-09-23T22:00:43.999Z,14.90
2022-09-23T22:03:10.959Z,14.13
2022-09-23T22:05:43.995Z,13.32
2022-09-23T22:08:10.690Z,13.23
2022-09-23T22:10:37.421Z,13.68
2022-09-23T22:13:03.959Z,13.63
2022-09-23T22:15:33.542Z,13.02
2022-09-23T22:18:01.372Z,13.68
2022-09-23T22:20:28.144Z,13.75
2022-09-23T22:22:54.626Z,13.63
2022-09-23T22:25:21.163Z,14.52
2022-09-23T22:28:06.319Z,13.98
2022-09-23T22:30:51.092Z,14.00
2022-09-23T22:33:19.042Z,13.97
2022-09-23T22:35:45.531Z,13.45
2022-09-23T22:38:12.546Z,13.70
2022-09-23T22:40:42.690Z,14.63
2022-09-23T22:43:09.242Z,15.75
2022-09-23T22:45:37.609Z,15.63
2022-09-23T22:48:04.499Z,17.55
2022-09-23T22:50:32.310Z,16.90
2022-09-23T22:52:58.818Z,18.13
2022-09-23T22:55:25.401Z,18.20
2022-09-23T22:57:51.846Z,20.17
2022-09-23T23:00:18.443Z,20.23
2022-09-23T23:02:44.934Z,20.48
2022-09-23T23:05:11.634Z,21.00
2022-09-23T23:07:39.502Z,21.85
2022-09-23T23:10:07.269Z,21.92
2022-09-23T23:12:33.858Z,21.25
2022-09-23T23:15:00.368Z,20.13
2022-09-23T23:17:26.844Z,20.75
2022-09-23T23:19:53.794Z,19.75
2022-09-23T23:22:20.282Z,21.15
2022-09-23T23:24:48.114Z,19.55
2022-09-23T23:27:14.703Z,18.13
2022-09-23T23:29:41.206Z,16.90
2022-09-23T23:32:09.704Z,16.95
2022-09-23T23:34:36.273Z,17.00
2022-09-23T23:37:02.817Z,15.00
2022-09-23T23:39:29.325Z,14.93
2022-09-23T23:41:57.817Z,14.75
2022-09-23T23:44:25.119Z,13.73
2022-09-23T23:46:51.754Z,15.15
2022-09-23T23:49:18.292Z,15.35
2022-09-23T23:51:44.838Z,14.50
2022-09-23T23:54:11.359Z,15.43
2022-09-23T23:56:37.866Z,14.55
2022-09-23T23:59:05.747Z,14.80
